sensor_id;sensor_type;location;lat;lon;timestamp;P1;durP1;ratioP1;P2;durP2;ratioP2
17725;SDS011;8983;53.156;17.960;2022-09-09T00:02:00;6.40;;;4.43;;
17725;SDS011;8983;53.156;17.960;2022-09-09T00:04:32;7.97;;;4.53;;
17725;SDS011;8983;53.156;17.960;2022-09-09T00:07:03;5.90;;;4.53;;
17725;SDS011;8983;53.156;17.960;2022-09-09T00:09:36;6.23;;;5.03;;
17725;SDS011;8983;53.156;17.960;2022-09-09T00:12:15;5.47;;;4.13;;
17725;SDS011;8983;53.156;17.960;2022-09-09T00:14:50;6.33;;;4.37;;
17725;SDS011;8983;53.156;17.960;2022-09-09T00:17:26;8.57;;;4.27;;
17725;SDS011;8983;53.156;17.960;2022-09-09T00:20:04;7.47;;;5.20;;
17725;SDS011;8983;53.156;17.960;2022-09-09T00:22:40;7.63;;;4.57;;
17725;SDS011;8983;53.156;17.960;2022-09-09T00:25:15;6.27;;;4.77;;
17725;SDS011;8983;53.156;17.960;2022-09-09T00:27:50;6.90;;;4.47;;
17725;SDS011;8983;53.156;17.960;2022-09-09T00:30:19;6.80;;;5.10;;
17725;SDS011;8983;53.156;17.960;2022-09-09T00:32:53;6.80;;;4.63;;
17725;SDS011;8983;53.156;17.960;2022-09-09T00:35:25;7.37;;;4.93;;
17725;SDS011;8983;53.156;17.960;2022-09-09T00:37:56;7.17;;;4.47;;
17725;SDS011;8983;53.156;17.960;2022-09-09T00:40:29;7.00;;;4.70;;
17725;SDS011;8983;53.156;17.960;2022-09-09T00:43:18;8.37;;;4.70;;
17725;SDS011;8983;53.156;17.960;2022-09-09T00:46:08;5.60;;;4.70;;
17725;SDS011;8983;53.156;17.960;2022-09-09T00:48:59;7.07;;;4.47;;
17725;SDS011;8983;53.156;17.960;2022-09-09T00:51:36;8.87;;;5.10;;
17725;SDS011;8983;53.156;17.960;2022-09-09T00:54:25;7.43;;;4.93;;
17725;SDS011;8983;53.156;17.960;2022-09-09T00:57:03;5.50;;;4.33;;
17725;SDS011;8983;53.156;17.960;2022-09-09T00:59:45;7.27;;;5.10;;
17725;SDS011;8983;53.156;17.960;2022-09-09T01:02:21;10.87;;;5.13;;
17725;SDS011;8983;53.156;17.960;2022-09-09T01:04:58;6.83;;;5.17;;
17725;SDS011;8983;53.156;17.960;2022-09-09T01:07:32;7.80;;;5.27;;
17725;SDS011;8983;53.156;17.960;2022-09-09T01:10:00;8.57;;;5.10;;
17725;SDS011;8983;53.156;17.960;2022-09-09T01:12:35;6.23;;;5.10;;
17725;SDS011;8983;53.156;17.960;2022-09-09T01:15:10;10.57;;;5.50;;
17725;SDS011;8983;53.156;17.960;2022-09-09T01:17:46;5.50;;;5.00;;
17725;SDS011;8983;53.156;17.960;2022-09-09T01:20:20;8.80;;;5.07;;
17725;SDS011;8983;53.156;17.960;2022-09-09T01:23:08;10.17;;;5.40;;
17725;SDS011;8983;53.156;17.960;2022-09-09T01:26:08;7.30;;;5.40;;
17725;SDS011;8983;53.156;17.960;2022-09-09T01:28:43;7.60;;;5.60;;
17725;SDS011;8983;53.156;17.960;2022-09-09T01:31:14;6.30;;;5.10;;
17725;SDS011;8983;53.156;17.960;2022-09-09T01:33:49;7.50;;;5.20;;
17725;SDS011;8983;53.156;17.960;2022-09-09T01:36:19;8.73;;;5.27;;
17725;SDS011;8983;53.156;17.960;2022-09-09T01:38:53;8.70;;;5.43;;
17725;SDS011;8983;53.156;17.960;2022-09-09T01:41:22;10.43;;;5.90;;
17725;SDS011;8983;53.156;17.960;2022-09-09T01:43:50;9.13;;;5.73;;
17725;SDS011;8983;53.156;17.960;2022-09-09T01:46:20;8.70;;;5.97;;
17725;SDS011;8983;53.156;17.960;2022-09-09T01:48:50;8.43;;;5.57;;
17725;SDS011;8983;53.156;17.960;2022-09-09T01:51:19;11.20;;;5.37;;
17725;SDS011;8983;53.156;17.960;2022-09-09T01:53:47;7.80;;;5.67;;
17725;SDS011;8983;53.156;17.960;2022-09-09T01:56:19;7.93;;;5.13;;
17725;SDS011;8983;53.156;17.960;2022-09-09T01:59:01;7.03;;;5.57;;
17725;SDS011;8983;53.156;17.960;2022-09-09T02:01:39;9.33;;;5.63;;
17725;SDS011;8983;53.156;17.960;2022-09-09T02:04:18;11.47;;;5.70;;
17725;SDS011;8983;53.156;17.960;2022-09-09T02:06:59;7.50;;;5.73;;
17725;SDS011;8983;53.156;17.960;2022-09-09T02:09:29;8.60;;;6.13;;
17725;SDS011;8983;53.156;17.960;2022-09-09T02:12:00;7.40;;;5.50;;
17725;SDS011;8983;53.156;17.960;2022-09-09T02:14:34;6.87;;;5.13;;
17725;SDS011;8983;53.156;17.960;2022-09-09T02:17:07;7.87;;;5.60;;
17725;SDS011;8983;53.156;17.960;2022-09-09T02:19:38;5.90;;;5.10;;
17725;SDS011;8983;53.156;17.960;2022-09-09T02:22:12;6.50;;;5.37;;
17725;SDS011;8983;53.156;17.960;2022-09-09T02:24:40;9.20;;;5.77;;
17725;SDS011;8983;53.156;17.960;2022-09-09T02:27:10;8.17;;;6.10;;
17725;SDS011;8983;53.156;17.960;2022-09-09T02:29:40;6.57;;;5.57;;
17725;SDS011;8983;53.156;17.960;2022-09-09T02:32:11;7.90;;;5.73;;
17725;SDS011;8983;53.156;17.960;2022-09-09T02:34:43;10.30;;;6.03;;
17725;SDS011;8983;53.156;17.960;2022-09-09T02:37:14;8.27;;;5.97;;
17725;SDS011;8983;53.156;17.960;2022-09-09T02:39:46;7.70;;;6.03;;
17725;SDS011;8983;53.156;17.960;2022-09-09T02:42:15;6.17;;;5.50;;
17725;SDS011;8983;53.156;17.960;2022-09-09T02:44:44;7.50;;;5.53;;
17725;SDS011;8983;53.156;17.960;2022-09-09T02:50:05;8.50;;;5.53;;
17725;SDS011;8983;53.156;17.960;2022-09-09T02:52:45;9.00;;;6.00;;
17725;SDS011;8983;53.156;17.960;2022-09-09T02:55:23;11.13;;;6.10;;
17725;SDS011;8983;53.156;17.960;2022-09-09T02:58:07;9.53;;;6.03;;
17725;SDS011;8983;53.156;17.960;2022-09-09T03:00:38;11.20;;;6.27;;
17725;SDS011;8983;53.156;17.960;2022-09-09T03:03:07;7.57;;;5.93;;
17725;SDS011;8983;53.156;17.960;2022-09-09T03:05:36;10.70;;;7.07;;
17725;SDS011;8983;53.156;17.960;2022-09-09T03:08:04;7.83;;;6.17;;
17725;SDS011;8983;53.156;17.960;2022-09-09T03:10:33;8.23;;;6.33;;
17725;SDS011;8983;53.156;17.960;2022-09-09T03:13:01;11.50;;;7.00;;
17725;SDS011;8983;53.156;17.960;2022-09-09T03:15:32;10.43;;;7.43;;
17725;SDS011;8983;53.156;17.960;2022-09-09T03:18:01;9.10;;;6.40;;
17725;SDS011;8983;53.156;17.960;2022-09-09T03:20:29;9.13;;;6.80;;
17725;SDS011;8983;53.156;17.960;2022-09-09T03:22:58;12.50;;;7.03;;
17725;SDS011;8983;53.156;17.960;2022-09-09T03:25:27;9.93;;;7.33;;
17725;SDS011;8983;53.156;17.960;2022-09-09T03:27:56;9.63;;;7.13;;
17725;SDS011;8983;53.156;17.960;2022-09-09T03:30:25;7.67;;;6.40;;
17725;SDS011;8983;53.156;17.960;2022-09-09T03:32:55;9.30;;;7.60;;
17725;SDS011;8983;53.156;17.960;2022-09-09T03:35:24;10.30;;;8.10;;
17725;SDS011;8983;53.156;17.960;2022-09-09T03:37:52;9.90;;;7.70;;
17725;SDS011;8983;53.156;17.960;2022-09-09T03:40:21;9.57;;;8.00;;
17725;SDS011;8983;53.156;17.960;2022-09-09T03:42:49;11.80;;;8.37;;
17725;SDS011;8983;53.156;17.960;2022-09-09T03:45:18;11.53;;;8.27;;
17725;SDS011;8983;53.156;17.960;2022-09-09T03:47:46;11.60;;;8.60;;
17725;SDS011;8983;53.156;17.960;2022-09-09T03:50:15;13.07;;;7.87;;
17725;SDS011;8983;53.156;17.960;2022-09-09T03:52:44;12.33;;;8.33;;
17725;SDS011;8983;53.156;17.960;2022-09-09T03:55:13;11.70;;;8.50;;
17725;SDS011;8983;53.156;17.960;2022-09-09T03:57:41;11.17;;;9.27;;
17725;SDS011;8983;53.156;17.960;2022-09-09T04:00:09;11.37;;;9.33;;
17725;SDS011;8983;53.156;17.960;2022-09-09T04:02:38;11.40;;;8.47;;
17725;SDS011;8983;53.156;17.960;2022-09-09T04:05:06;9.97;;;8.80;;
17725;SDS011;8983;53.156;17.960;2022-09-09T04:07:36;12.13;;;8.60;;
17725;SDS011;8983;53.156;17.960;2022-09-09T04:10:05;11.60;;;9.10;;
17725;SDS011;8983;53.156;17.960;2022-09-09T04:12:34;12.40;;;8.20;;
17725;SDS011;8983;53.156;17.960;2022-09-09T04:15:02;11.60;;;9.63;;
17725;SDS011;8983;53.156;17.960;2022-09-09T04:17:31;11.30;;;8.63;;
17725;SDS011;8983;53.156;17.960;2022-09-09T04:19:59;9.77;;;8.13;;
17725;SDS011;8983;53.156;17.960;2022-09-09T04:22:28;14.33;;;8.07;;
17725;SDS011;8983;53.156;17.960;2022-09-09T04:24:58;10.07;;;8.37;;
17725;SDS011;8983;53.156;17.960;2022-09-09T04:27:26;11.03;;;8.23;;
17725;SDS011;8983;53.156;17.960;2022-09-09T04:29:55;9.20;;;7.60;;
17725;SDS011;8983;53.156;17.960;2022-09-09T04:32:23;9.47;;;7.70;;
17725;SDS011;8983;53.156;17.960;2022-09-09T04:34:53;10.37;;;8.80;;
17725;SDS011;8983;53.156;17.960;2022-09-09T04:37:21;8.67;;;7.77;;
17725;SDS011;8983;53.156;17.960;2022-09-09T04:39:51;14.10;;;8.23;;
17725;SDS011;8983;53.156;17.960;2022-09-09T04:42:20;12.10;;;8.17;;
17725;SDS011;8983;53.156;17.960;2022-09-09T04:44:49;9.17;;;7.83;;
17725;SDS011;8983;53.156;17.960;2022-09-09T04:47:17;10.67;;;8.47;;
17725;SDS011;8983;53.156;17.960;2022-09-09T04:49:45;9.63;;;7.60;;
17725;SDS011;8983;53.156;17.960;2022-09-09T04:52:13;9.57;;;7.60;;
17725;SDS011;8983;53.156;17.960;2022-09-09T04:54:43;10.57;;;7.27;;
17725;SDS011;8983;53.156;17.960;2022-09-09T04:57:12;9.87;;;7.17;;
17725;SDS011;8983;53.156;17.960;2022-09-09T04:59:45;10.23;;;8.20;;
17725;SDS011;8983;53.156;17.960;2022-09-09T05:02:14;12.57;;;8.00;;
17725;SDS011;8983;53.156;17.960;2022-09-09T05:04:42;10.50;;;7.03;;
17725;SDS011;8983;53.156;17.960;2022-09-09T05:07:10;10.43;;;8.03;;
17725;SDS011;8983;53.156;17.960;2022-09-09T05:09:40;10.13;;;7.50;;
17725;SDS011;8983;53.156;17.960;2022-09-09T05:12:08;14.73;;;8.47;;
17725;SDS011;8983;53.156;17.960;2022-09-09T05:14:37;11.73;;;8.40;;
17725;SDS011;8983;53.156;17.960;2022-09-09T05:17:06;10.30;;;8.17;;
17725;SDS011;8983;53.156;17.960;2022-09-09T05:19:34;12.37;;;9.43;;
17725;SDS011;8983;53.156;17.960;2022-09-09T05:22:02;10.27;;;8.13;;
17725;SDS011;8983;53.156;17.960;2022-09-09T05:24:31;13.17;;;9.23;;
17725;SDS011;8983;53.156;17.960;2022-09-09T05:26:59;11.43;;;8.57;;
17725;SDS011;8983;53.156;17.960;2022-09-09T05:29:28;12.93;;;9.57;;
17725;SDS011;8983;53.156;17.960;2022-09-09T05:31:59;11.97;;;9.57;;
17725;SDS011;8983;53.156;17.960;2022-09-09T05:34:29;12.97;;;9.57;;
17725;SDS011;8983;53.156;17.960;2022-09-09T05:36:57;11.57;;;9.17;;
17725;SDS011;8983;53.156;17.960;2022-09-09T05:39:25;16.00;;;10.93;;
17725;SDS011;8983;53.156;17.960;2022-09-09T05:41:53;15.00;;;10.63;;
17725;SDS011;8983;53.156;17.960;2022-09-09T05:44:21;12.03;;;10.17;;
17725;SDS011;8983;53.156;17.960;2022-09-09T05:46:53;13.30;;;9.83;;
17725;SDS011;8983;53.156;17.960;2022-09-09T05:49:21;15.37;;;10.90;;
17725;SDS011;8983;53.156;17.960;2022-09-09T05:51:51;13.57;;;9.83;;
17725;SDS011;8983;53.156;17.960;2022-09-09T05:54:19;18.00;;;10.33;;
17725;SDS011;8983;53.156;17.960;2022-09-09T05:56:48;14.87;;;11.20;;
17725;SDS011;8983;53.156;17.960;2022-09-09T05:59:17;14.90;;;10.70;;
17725;SDS011;8983;53.156;17.960;2022-09-09T06:01:45;14.03;;;10.83;;
17725;SDS011;8983;53.156;17.960;2022-09-09T06:04:14;13.13;;;11.33;;
17725;SDS011;8983;53.156;17.960;2022-09-09T06:06:42;14.80;;;11.40;;
17725;SDS011;8983;53.156;17.960;2022-09-09T06:09:11;16.03;;;11.40;;
17725;SDS011;8983;53.156;17.960;2022-09-09T06:11:39;17.13;;;11.60;;
17725;SDS011;8983;53.156;17.960;2022-09-09T06:14:08;17.93;;;12.77;;
17725;SDS011;8983;53.156;17.960;2022-09-09T06:16:36;21.17;;;13.10;;
17725;SDS011;8983;53.156;17.960;2022-09-09T06:19:05;17.73;;;13.33;;
17725;SDS011;8983;53.156;17.960;2022-09-09T06:21:33;22.43;;;14.50;;
17725;SDS011;8983;53.156;17.960;2022-09-09T06:24:03;21.60;;;15.37;;
17725;SDS011;8983;53.156;17.960;2022-09-09T06:26:35;24.03;;;14.70;;
17725;SDS011;8983;53.156;17.960;2022-09-09T06:29:05;24.50;;;15.30;;
17725;SDS011;8983;53.156;17.960;2022-09-09T06:31:34;21.53;;;14.67;;
17725;SDS011;8983;53.156;17.960;2022-09-09T06:34:04;21.73;;;13.47;;
17725;SDS011;8983;53.156;17.960;2022-09-09T06:36:34;24.73;;;14.80;;
17725;SDS011;8983;53.156;17.960;2022-09-09T06:39:03;24.67;;;15.67;;
17725;SDS011;8983;53.156;17.960;2022-09-09T06:41:37;23.87;;;14.47;;
17725;SDS011;8983;53.156;17.960;2022-09-09T06:44:05;19.67;;;13.77;;
17725;SDS011;8983;53.156;17.960;2022-09-09T06:46:33;27.33;;;14.40;;
17725;SDS011;8983;53.156;17.960;2022-09-09T06:49:02;23.80;;;14.37;;
17725;SDS011;8983;53.156;17.960;2022-09-09T06:51:30;24.40;;;15.17;;
17725;SDS011;8983;53.156;17.960;2022-09-09T06:54:01;22.30;;;14.93;;
17725;SDS011;8983;53.156;17.960;2022-09-09T06:56:31;24.77;;;15.87;;
17725;SDS011;8983;53.156;17.960;2022-09-09T06:59:02;22.47;;;16.50;;
17725;SDS011;8983;53.156;17.960;2022-09-09T07:01:32;32.77;;;16.60;;
17725;SDS011;8983;53.156;17.960;2022-09-09T07:04:02;28.30;;;16.30;;
17725;SDS011;8983;53.156;17.960;2022-09-09T07:06:35;24.77;;;16.90;;
17725;SDS011;8983;53.156;17.960;2022-09-09T07:09:05;33.23;;;16.67;;
17725;SDS011;8983;53.156;17.960;2022-09-09T07:11:36;26.77;;;17.77;;
17725;SDS011;8983;53.156;17.960;2022-09-09T07:14:07;27.80;;;17.50;;
17725;SDS011;8983;53.156;17.960;2022-09-09T07:16:38;30.87;;;18.07;;
17725;SDS011;8983;53.156;17.960;2022-09-09T07:19:06;31.30;;;18.07;;
17725;SDS011;8983;53.156;17.960;2022-09-09T07:21:35;27.87;;;17.40;;
17725;SDS011;8983;53.156;17.960;2022-09-09T07:24:03;28.87;;;17.70;;
17725;SDS011;8983;53.156;17.960;2022-09-09T07:26:33;34.77;;;18.47;;
17725;SDS011;8983;53.156;17.960;2022-09-09T07:29:02;33.70;;;19.10;;
17725;SDS011;8983;53.156;17.960;2022-09-09T07:31:32;34.77;;;19.10;;
17725;SDS011;8983;53.156;17.960;2022-09-09T07:34:02;29.73;;;18.50;;
17725;SDS011;8983;53.156;17.960;2022-09-09T07:36:31;35.27;;;19.10;;
17725;SDS011;8983;53.156;17.960;2022-09-09T07:39:00;28.13;;;19.03;;
17725;SDS011;8983;53.156;17.960;2022-09-09T07:41:30;36.27;;;18.83;;
17725;SDS011;8983;53.156;17.960;2022-09-09T07:44:03;36.47;;;18.93;;
17725;SDS011;8983;53.156;17.960;2022-09-09T07:46:34;36.33;;;18.80;;
17725;SDS011;8983;53.156;17.960;2022-09-09T07:49:03;30.37;;;18.73;;
17725;SDS011;8983;53.156;17.960;2022-09-09T07:51:32;33.33;;;19.30;;
17725;SDS011;8983;53.156;17.960;2022-09-09T07:54:02;35.00;;;20.37;;
17725;SDS011;8983;53.156;17.960;2022-09-09T07:56:31;32.07;;;18.17;;
17725;SDS011;8983;53.156;17.960;2022-09-09T07:59:00;32.00;;;18.20;;
17725;SDS011;8983;53.156;17.960;2022-09-09T08:01:31;35.93;;;19.27;;
17725;SDS011;8983;53.156;17.960;2022-09-09T08:04:06;32.67;;;19.43;;
17725;SDS011;8983;53.156;17.960;2022-09-09T08:06:35;30.87;;;18.53;;
17725;SDS011;8983;53.156;17.960;2022-09-09T08:09:06;31.27;;;17.93;;
17725;SDS011;8983;53.156;17.960;2022-09-09T08:11:35;32.03;;;18.00;;
17725;SDS011;8983;53.156;17.960;2022-09-09T08:14:04;34.00;;;18.70;;
17725;SDS011;8983;53.156;17.960;2022-09-09T08:16:36;35.33;;;19.27;;
17725;SDS011;8983;53.156;17.960;2022-09-09T08:19:06;35.30;;;19.83;;
17725;SDS011;8983;53.156;17.960;2022-09-09T08:21:35;32.57;;;19.03;;
17725;SDS011;8983;53.156;17.960;2022-09-09T08:24:06;38.83;;;19.17;;
17725;SDS011;8983;53.156;17.960;2022-09-09T08:26:37;32.33;;;19.60;;
17725;SDS011;8983;53.156;17.960;2022-09-09T08:29:08;33.60;;;19.33;;
17725;SDS011;8983;53.156;17.960;2022-09-09T08:31:39;36.13;;;19.07;;
17725;SDS011;8983;53.156;17.960;2022-09-09T08:34:08;37.60;;;20.20;;
17725;SDS011;8983;53.156;17.960;2022-09-09T08:36:38;37.00;;;20.43;;
17725;SDS011;8983;53.156;17.960;2022-09-09T08:39:09;35.20;;;21.53;;
17725;SDS011;8983;53.156;17.960;2022-09-09T08:41:48;39.80;;;20.77;;
17725;SDS011;8983;53.156;17.960;2022-09-09T08:44:31;44.50;;;22.80;;
17725;SDS011;8983;53.156;17.960;2022-09-09T08:47:17;38.80;;;21.83;;
17725;SDS011;8983;53.156;17.960;2022-09-09T08:50:05;40.97;;;23.63;;
17725;SDS011;8983;53.156;17.960;2022-09-09T08:52:45;40.20;;;21.73;;
17725;SDS011;8983;53.156;17.960;2022-09-09T08:55:24;41.07;;;23.37;;
17725;SDS011;8983;53.156;17.960;2022-09-09T08:58:01;39.63;;;22.40;;
17725;SDS011;8983;53.156;17.960;2022-09-09T09:00:39;43.93;;;23.33;;
17725;SDS011;8983;53.156;17.960;2022-09-09T09:03:18;37.47;;;23.53;;
17725;SDS011;8983;53.156;17.960;2022-09-09T09:05:55;40.70;;;22.27;;
17725;SDS011;8983;53.156;17.960;2022-09-09T09:08:30;40.00;;;23.00;;
17725;SDS011;8983;53.156;17.960;2022-09-09T09:11:05;37.50;;;23.43;;
17725;SDS011;8983;53.156;17.960;2022-09-09T09:13:34;46.13;;;22.53;;
17725;SDS011;8983;53.156;17.960;2022-09-09T09:16:11;37.47;;;20.90;;
17725;SDS011;8983;53.156;17.960;2022-09-09T09:18:48;38.20;;;20.80;;
17725;SDS011;8983;53.156;17.960;2022-09-09T09:21:18;40.43;;;22.20;;
17725;SDS011;8983;53.156;17.960;2022-09-09T09:23:54;36.60;;;21.23;;
17725;SDS011;8983;53.156;17.960;2022-09-09T09:26:25;40.47;;;23.77;;
17725;SDS011;8983;53.156;17.960;2022-09-09T09:28:58;40.63;;;22.17;;
17725;SDS011;8983;53.156;17.960;2022-09-09T09:31:29;36.10;;;19.90;;
17725;SDS011;8983;53.156;17.960;2022-09-09T09:33:59;37.17;;;22.00;;
17725;SDS011;8983;53.156;17.960;2022-09-09T09:36:33;41.23;;;20.07;;
17725;SDS011;8983;53.156;17.960;2022-09-09T09:39:06;37.87;;;21.20;;
17725;SDS011;8983;53.156;17.960;2022-09-09T09:41:56;39.33;;;21.77;;
17725;SDS011;8983;53.156;17.960;2022-09-09T09:44:32;39.40;;;20.60;;
17725;SDS011;8983;53.156;17.960;2022-09-09T09:47:07;33.33;;;18.77;;
17725;SDS011;8983;53.156;17.960;2022-09-09T09:49:40;33.07;;;19.60;;
17725;SDS011;8983;53.156;17.960;2022-09-09T09:52:20;40.07;;;20.93;;
17725;SDS011;8983;53.156;17.960;2022-09-09T09:54:51;31.83;;;19.47;;
17725;SDS011;8983;53.156;17.960;2022-09-09T09:57:22;30.40;;;19.40;;
17725;SDS011;8983;53.156;17.960;2022-09-09T10:00:03;29.50;;;18.63;;
17725;SDS011;8983;53.156;17.960;2022-09-09T10:02:40;36.03;;;19.63;;
17725;SDS011;8983;53.156;17.960;2022-09-09T10:05:14;34.13;;;19.40;;
17725;SDS011;8983;53.156;17.960;2022-09-09T10:08:00;40.40;;;19.30;;
17725;SDS011;8983;53.156;17.960;2022-09-09T10:10:34;30.03;;;18.57;;
17725;SDS011;8983;53.156;17.960;2022-09-09T10:13:15;30.80;;;18.97;;
17725;SDS011;8983;53.156;17.960;2022-09-09T10:15:48;32.33;;;18.67;;
17725;SDS011;8983;53.156;17.960;2022-09-09T10:18:34;30.57;;;18.27;;
17725;SDS011;8983;53.156;17.960;2022-09-09T10:21:13;31.07;;;18.37;;
17725;SDS011;8983;53.156;17.960;2022-09-09T10:24:08;38.07;;;20.60;;
17725;SDS011;8983;53.156;17.960;2022-09-09T10:26:53;36.77;;;19.57;;
17725;SDS011;8983;53.156;17.960;2022-09-09T10:29:32;32.23;;;19.97;;
17725;SDS011;8983;53.156;17.960;2022-09-09T10:32:20;27.67;;;17.43;;
17725;SDS011;8983;53.156;17.960;2022-09-09T10:35:04;34.67;;;18.83;;
17725;SDS011;8983;53.156;17.960;2022-09-09T10:38:04;36.43;;;18.47;;
17725;SDS011;8983;53.156;17.960;2022-09-09T10:40:42;27.70;;;17.67;;
17725;SDS011;8983;53.156;17.960;2022-09-09T10:43:21;30.70;;;18.03;;
17725;SDS011;8983;53.156;17.960;2022-09-09T10:46:04;26.97;;;16.97;;
17725;SDS011;8983;53.156;17.960;2022-09-09T10:48:40;30.47;;;16.57;;
17725;SDS011;8983;53.156;17.960;2022-09-09T10:51:25;30.57;;;17.20;;
17725;SDS011;8983;53.156;17.960;2022-09-09T10:54:06;29.73;;;17.20;;
17725;SDS011;8983;53.156;17.960;2022-09-09T10:56:48;31.10;;;17.93;;
17725;SDS011;8983;53.156;17.960;2022-09-09T10:59:23;27.30;;;16.90;;
17725;SDS011;8983;53.156;17.960;2022-09-09T11:01:57;27.63;;;16.23;;
17725;SDS011;8983;53.156;17.960;2022-09-09T11:04:30;26.27;;;16.07;;
17725;SDS011;8983;53.156;17.960;2022-09-09T11:07:05;27.43;;;15.43;;
17725;SDS011;8983;53.156;17.960;2022-09-09T11:09:39;25.67;;;15.50;;
17725;SDS011;8983;53.156;17.960;2022-09-09T11:12:12;26.77;;;14.77;;
17725;SDS011;8983;53.156;17.960;2022-09-09T11:14:47;24.10;;;14.47;;
17725;SDS011;8983;53.156;17.960;2022-09-09T11:17:19;24.50;;;14.30;;
17725;SDS011;8983;53.156;17.960;2022-09-09T11:19:51;23.60;;;14.13;;
17725;SDS011;8983;53.156;17.960;2022-09-09T11:22:22;19.20;;;13.07;;
17725;SDS011;8983;53.156;17.960;2022-09-09T11:24:57;23.60;;;13.13;;
17725;SDS011;8983;53.156;17.960;2022-09-09T11:27:29;24.57;;;12.97;;
17725;SDS011;8983;53.156;17.960;2022-09-09T11:30:15;21.60;;;12.93;;
17725;SDS011;8983;53.156;17.960;2022-09-09T11:33:16;21.07;;;11.90;;
17725;SDS011;8983;53.156;17.960;2022-09-09T11:36:16;18.77;;;12.77;;
17725;SDS011;8983;53.156;17.960;2022-09-09T11:39:06;18.27;;;11.40;;
17725;SDS011;8983;53.156;17.960;2022-09-09T11:41:52;15.90;;;11.33;;
17725;SDS011;8983;53.156;17.960;2022-09-09T11:44:23;16.88;;;11.52;;
17725;SDS011;8983;53.156;17.960;2022-09-09T11:46:55;18.40;;;11.53;;
17725;SDS011;8983;53.156;17.960;2022-09-09T11:49:26;14.35;;;10.35;;
17725;SDS011;8983;53.156;17.960;2022-09-09T11:51:55;13.57;;;9.43;;
17725;SDS011;8983;53.156;17.960;2022-09-09T11:54:30;12.10;;;8.93;;
17725;SDS011;8983;53.156;17.960;2022-09-09T11:57:00;13.45;;;8.07;;
17725;SDS011;8983;53.156;17.960;2022-09-09T11:59:31;14.80;;;8.55;;
17725;SDS011;8983;53.156;17.960;2022-09-09T12:02:00;14.85;;;9.25;;
17725;SDS011;8983;53.156;17.960;2022-09-09T12:04:30;16.25;;;10.75;;
17725;SDS011;8983;53.156;17.960;2022-09-09T12:07:04;14.32;;;9.90;;
17725;SDS011;8983;53.156;17.960;2022-09-09T12:09:49;10.95;;;7.88;;
17725;SDS011;8983;53.156;17.960;2022-09-09T12:12:25;14.65;;;8.38;;
17725;SDS011;8983;53.156;17.960;2022-09-09T12:17:59;16.10;;;10.88;;
17725;SDS011;8983;53.156;17.960;2022-09-09T12:20:33;17.08;;;10.82;;
17725;SDS011;8983;53.156;17.960;2022-09-09T12:23:08;17.00;;;11.07;;
17725;SDS011;8983;53.156;17.960;2022-09-09T12:26:00;16.58;;;10.77;;
17725;SDS011;8983;53.156;17.960;2022-09-09T12:28:54;17.27;;;10.75;;
17725;SDS011;8983;53.156;17.960;2022-09-09T12:31:32;16.90;;;10.90;;
17725;SDS011;8983;53.156;17.960;2022-09-09T12:34:13;15.98;;;10.82;;
17725;SDS011;8983;53.156;17.960;2022-09-09T12:36:44;14.45;;;10.45;;
17725;SDS011;8983;53.156;17.960;2022-09-09T12:39:21;22.42;;;11.82;;
17725;SDS011;8983;53.156;17.960;2022-09-09T12:41:56;21.70;;;11.60;;
17725;SDS011;8983;53.156;17.960;2022-09-09T12:44:26;21.08;;;11.68;;
17725;SDS011;8983;53.156;17.960;2022-09-09T12:46:55;18.33;;;10.75;;
17725;SDS011;8983;53.156;17.960;2022-09-09T12:49:28;17.98;;;11.20;;
17725;SDS011;8983;53.156;17.960;2022-09-09T12:52:01;20.38;;;11.15;;
17725;SDS011;8983;53.156;17.960;2022-09-09T12:54:32;16.13;;;11.75;;
17725;SDS011;8983;53.156;17.960;2022-09-09T12:57:02;15.55;;;11.30;;
17725;SDS011;8983;53.156;17.960;2022-09-09T12:59:38;17.02;;;10.88;;
17725;SDS011;8983;53.156;17.960;2022-09-09T13:02:18;17.48;;;10.98;;
17725;SDS011;8983;53.156;17.960;2022-09-09T13:04:48;13.98;;;10.60;;
17725;SDS011;8983;53.156;17.960;2022-09-09T13:07:17;14.88;;;9.98;;
17725;SDS011;8983;53.156;17.960;2022-09-09T13:09:46;13.68;;;9.60;;
17725;SDS011;8983;53.156;17.960;2022-09-09T13:12:16;12.82;;;9.82;;
17725;SDS011;8983;53.156;17.960;2022-09-09T13:14:49;11.38;;;8.85;;
17725;SDS011;8983;53.156;17.960;2022-09-09T13:17:21;14.60;;;9.13;;
17725;SDS011;8983;53.156;17.960;2022-09-09T13:19:50;11.65;;;8.55;;
17725;SDS011;8983;53.156;17.960;2022-09-09T13:22:20;16.40;;;9.60;;
17725;SDS011;8983;53.156;17.960;2022-09-09T13:25:00;11.10;;;9.05;;
17725;SDS011;8983;53.156;17.960;2022-09-09T13:27:31;13.77;;;8.80;;
17725;SDS011;8983;53.156;17.960;2022-09-09T13:32:59;13.00;;;9.35;;
17725;SDS011;8983;53.156;17.960;2022-09-09T13:35:45;9.27;;;8.05;;
17725;SDS011;8983;53.156;17.960;2022-09-09T13:38:15;12.20;;;9.10;;
17725;SDS011;8983;53.156;17.960;2022-09-09T13:40:54;15.05;;;9.68;;
17725;SDS011;8983;53.156;17.960;2022-09-09T13:43:24;13.38;;;8.70;;
17725;SDS011;8983;53.156;17.960;2022-09-09T13:45:55;11.68;;;8.57;;
17725;SDS011;8983;53.156;17.960;2022-09-09T13:48:25;12.90;;;8.75;;
17725;SDS011;8983;53.156;17.960;2022-09-09T13:50:54;12.43;;;8.95;;
17725;SDS011;8983;53.156;17.960;2022-09-09T13:53:23;14.23;;;9.25;;
17725;SDS011;8983;53.156;17.960;2022-09-09T13:55:51;11.63;;;8.93;;
17725;SDS011;8983;53.156;17.960;2022-09-09T13:58:20;13.35;;;9.05;;
17725;SDS011;8983;53.156;17.960;2022-09-09T14:00:49;13.88;;;9.15;;
17725;SDS011;8983;53.156;17.960;2022-09-09T14:03:18;15.10;;;9.18;;
17725;SDS011;8983;53.156;17.960;2022-09-09T14:05:47;14.93;;;9.75;;
17725;SDS011;8983;53.156;17.960;2022-09-09T14:08:18;14.23;;;9.35;;
17725;SDS011;8983;53.156;17.960;2022-09-09T14:10:49;14.02;;;9.68;;
17725;SDS011;8983;53.156;17.960;2022-09-09T14:13:18;15.13;;;9.35;;
17725;SDS011;8983;53.156;17.960;2022-09-09T14:15:48;14.05;;;8.95;;
17725;SDS011;8983;53.156;17.960;2022-09-09T14:18:17;12.60;;;8.70;;
17725;SDS011;8983;53.156;17.960;2022-09-09T14:20:46;14.50;;;8.93;;
17725;SDS011;8983;53.156;17.960;2022-09-09T14:23:14;13.40;;;8.93;;
17725;SDS011;8983;53.156;17.960;2022-09-09T14:25:43;13.38;;;8.35;;
17725;SDS011;8983;53.156;17.960;2022-09-09T14:28:11;16.17;;;8.77;;
17725;SDS011;8983;53.156;17.960;2022-09-09T14:30:40;12.82;;;7.90;;
17725;SDS011;8983;53.156;17.960;2022-09-09T14:33:11;11.35;;;8.38;;
17725;SDS011;8983;53.156;17.960;2022-09-09T14:35:42;13.57;;;8.30;;
17725;SDS011;8983;53.156;17.960;2022-09-09T14:38:10;14.05;;;7.95;;
17725;SDS011;8983;53.156;17.960;2022-09-09T14:40:44;12.95;;;8.43;;
17725;SDS011;8983;53.156;17.960;2022-09-09T14:43:13;8.68;;;7.60;;
17725;SDS011;8983;53.156;17.960;2022-09-09T14:45:41;10.80;;;8.50;;
17725;SDS011;8983;53.156;17.960;2022-09-09T14:48:10;11.48;;;8.23;;
17725;SDS011;8983;53.156;17.960;2022-09-09T14:50:39;14.13;;;8.18;;
17725;SDS011;8983;53.156;17.960;2022-09-09T14:53:09;9.55;;;8.00;;
17725;SDS011;8983;53.156;17.960;2022-09-09T14:55:37;11.52;;;7.85;;
17725;SDS011;8983;53.156;17.960;2022-09-09T14:58:05;11.50;;;8.30;;
17725;SDS011;8983;53.156;17.960;2022-09-09T15:00:33;12.05;;;7.45;;
17725;SDS011;8983;53.156;17.960;2022-09-09T15:03:01;12.13;;;7.88;;
17725;SDS011;8983;53.156;17.960;2022-09-09T15:05:30;16.77;;;8.60;;
17725;SDS011;8983;53.156;17.960;2022-09-09T15:07:58;13.20;;;7.75;;
17725;SDS011;8983;53.156;17.960;2022-09-09T15:10:27;12.57;;;7.93;;
17725;SDS011;8983;53.156;17.960;2022-09-09T15:12:57;11.48;;;8.02;;